Time;durP1;ratioP1;P1;durP2;ratioP2;P2;SDS_P1;SDS_P2;PMS_P1;PMS_P2;Temp;Humidity;BMP_temperature;BMP_pressure;BME280_temperature;BME280_humidity;BME280_pressure;Samples;Min_cycle;Max_cycle;Signal;HPM_P1;HPM_P2
2021/03/21 00:04:20;;;;;;;29.8;17.9;;;;;;;-6.25;84.87402;99166.89;;;;
2021/03/21 00:14:17;;;;;;;36.5;23.8;;;;;;;-6.18;85.40625;99146.01;;;;
2021/03/21 00:24:16;;;;;;;47;26.7;;;;;;;-6.07;84.51953;99134.2;;;;
2021/03/21 00:34:10;;;;;;;43.9;21.6;;;;;;;-6.13;85.15723;99127.88;;;;
2021/03/21 00:44:07;;;;;;;56.9;26.1;;;;;;;-6.18;85.42969;99112.7;;;;
2021/03/21 00:54:04;;;;;;;54.3;29.3;;;;;;;-6.23;86.31641;99096.73;;;;
2021/03/21 01:04:01;;;;;;;38.5;26;;;;;;;-6.3;86.51855;99080.12;;;;
2021/03/21 01:13:57;;;;;;;35.6;22.6;;;;;;;-6.39;87.14844;99060.28;;;;
2021/03/21 01:23:54;;;;;;;38.7;21;;;;;;;-6.49;88.01367;99051.88;;;;
2021/03/21 01:33:51;;;;;;;32.1;19.9;;;;;;;-6.57;88.76172;99040.73;;;;
2021/03/21 01:43:47;;;;;;;36.5;21.4;;;;;;;-6.64;89.7832;99030.18;;;;
2021/03/21 01:53:44;;;;;;;42.7;21.7;;;;;;;-6.67;89.62598;99014.83;;;;
2021/03/21 02:03:41;;;;;;;33.8;21.1;;;;;;;-6.74;90.2793;99000.85;;;;
2021/03/21 02:13:37;;;;;;;39.4;25.5;;;;;;;-6.73;90.24023;98982.3;;;;
2021/03/21 02:23:34;;;;;;;32.1;21.6;;;;;;;-6.73;90.4668;98950.05;;;;
2021/03/21 02:33:31;;;;;;;37.5;23.8;;;;;;;-6.75;89.38379;98947.63;;;;
2021/03/21 02:43:27;;;;;;;32.3;23.8;;;;;;;-6.93;89.00977;98894.05;;;;
2021/03/21 02:53:24;;;;;;;30.8;19;;;;;;;-6.69;87.87402;98911.98;;;;
2021/03/21 03:03:21;;;;;;;37.7;20.3;;;;;;;-6.69;87.36621;98880.54;;;;
2021/03/21 03:13:17;;;;;;;33.2;19.8;;;;;;;-6.78;87.65039;98871.2;;;;
2021/03/21 03:23:14;;;;;;;26.1;16.9;;;;;;;-6.87;87.39355;98860.04;;;;
2021/03/21 03:33:11;;;;;;;23.6;19.9;;;;;;;-6.93;87.70508;98846.89;;;;
2021/03/21 03:43:08;;;;;;;25.7;17;;;;;;;-6.94;87.84277;98816.48;;;;
2021/03/21 03:53:04;;;;;;;26.2;15.5;;;;;;;-6.98;87.25293;98787.23;;;;
2021/03/21 04:03:01;;;;;;;23.3;11.9;;;;;;;-6.86;85.82129;98780.45;;;;
2021/03/21 04:12:58;;;;;;;17.7;11.5;;;;;;;-6.73;84.6582;98753.52;;;;
2021/03/21 04:22:54;;;;;;;18.3;12.5;;;;;;;-6.51;82.63574;98736.71;;;;
2021/03/21 04:32:51;;;;;;;15.6;7.6;;;;;;;-6.33;80.91895;98728.31;;;;
2021/03/21 04:42:48;;;;;;;17.1;10.6;;;;;;;-6.24;79.75488;98722.7;;;;
2021/03/21 04:52:45;;;;;;;11.6;6.2;;;;;;;-6.16;78.99023;98714.66;;;;
2021/03/21 05:02:41;;;;;;;10.8;6.5;;;;;;;-6.04;77.91699;98693.11;;;;
2021/03/21 05:12:38;;;;;;;14.1;7.4;;;;;;;-5.88;77.0332;98679.59;;;;
2021/03/21 05:22:38;;;;;;;8;5.6;;;;;;;-5.67;76.53125;98677.58;;;;
2021/03/21 05:32:32;;;;;;;12.1;6.1;;;;;;;-5.43;76.6709;98660.4;;;;
2021/03/21 05:42:55;;;;;;;7.3;3.7;;;;;;;-5.11;75.0127;98649.05;;;;
2021/03/21 05:52:52;;;;;;;6.4;5.2;;;;;;;-4.77;73.58008;98631.34;;;;
2021/03/21 06:02:50;;;;;;;8.1;4.1;;;;;;;-4.46;72.26074;98618.25;;;;
2021/03/21 06:12:19;;;;;;;5.8;4.4;;;;;;;-4.22;72.02734;98611.44;;;;
2021/03/21 06:22:16;;;;;;;8.9;4.8;;;;;;;-3.85;70.94434;98600.02;;;;
2021/03/21 06:32:14;;;;;;;12.1;4.7;;;;;;;-3.27;69.52051;98586.55;;;;
2021/03/21 06:42:11;;;;;;;9.1;5.1;;;;;;;-3;69.0957;98569.41;;;;
2021/03/21 06:52:08;;;;;;;6.1;4.1;;;;;;;-2.42;66.07227;98543.28;;;;
2021/03/21 07:02:05;;;;;;;7;3.9;;;;;;;-1.93;64.59863;98539.48;;;;
2021/03/21 07:12:02;;;;;;;7.2;5;;;;;;;-1.55;63.80762;98544.31;;;;
2021/03/21 07:22:00;;;;;;;7.1;4.4;;;;;;;-0.94;64.60547;98532.38;;;;
2021/03/21 07:31:57;;;;;;;10.7;6.3;;;;;;;-0.62;63.26367;98528.22;;;;
2021/03/21 07:41:54;;;;;;;10.3;6.9;;;;;;;-0.33;61.87207;98508.64;;;;
2021/03/21 07:51:52;;;;;;;10.7;5.1;;;;;;;-0.31;60.61426;98509.19;;;;
2021/03/21 08:01:50;;;;;;;10.4;5.3;;;;;;;-0.03;61.88281;98493.23;;;;
2021/03/21 08:11:47;;;;;;;13.9;7.1;;;;;;;0.19;59.20313;98473.95;;;;
2021/03/21 08:21:45;;;;;;;9.4;4.9;;;;;;;0.3;57.67969;98468.56;;;;
2021/03/21 08:31:42;;;;;;;6.5;3.8;;;;;;;0.24;57.68066;98447.54;;;;
2021/03/21 08:41:40;;;;;;;12.7;5.3;;;;;;;0.7;58.03223;98430.34;;;;
2021/03/21 08:51:38;;;;;;;5.8;3.6;;;;;;;0.73;57.45996;98428;;;;
2021/03/21 09:01:35;;;;;;;8.5;5.9;;;;;;;1.42;56.91992;98415.7;;;;
2021/03/21 09:11:36;;;;;;;10.7;6.1;;;;;;;1.59;55.30859;98423.56;;;;
2021/03/21 09:21:31;;;;;;;6.6;5.2;;;;;;;1.5;55.01855;98415.25;;;;
2021/03/21 09:31:29;;;;;;;8.6;5.1;;;;;;;1.34;56.79785;98400.25;;;;
2021/03/21 09:41:28;;;;;;;10.3;4.5;;;;;;;1.61;58.56641;98404.7;;;;
2021/03/21 09:51:34;;;;;;;8.4;4.8;;;;;;;2;59.71094;98382.94;;;;
2021/03/21 10:01:37;;;;;;;11.1;7.3;;;;;;;1.94;58.49023;98383.17;;;;
2021/03/21 10:11:20;;;;;;;15.3;8.7;;;;;;;2.1;59.93555;98370.75;;;;
2021/03/21 10:21:18;;;;;;;10.7;6.3;;;;;;;1.53;63.95117;98366.94;;;;
2021/03/21 10:31:16;;;;;;;13.8;9.9;;;;;;;1.65;67.16211;98364.11;;;;
2021/03/21 10:41:14;;;;;;;15.2;9.6;;;;;;;1.76;67.19043;98364.98;;;;
2021/03/21 10:51:13;;;;;;;11.2;8.1;;;;;;;1.47;67.92969;98359.19;;;;
2021/03/21 11:01:09;;;;;;;12.5;7.6;;;;;;;0.94;72.47754;98329.02;;;;
2021/03/21 11:11:07;;;;;;;9.8;8.5;;;;;;;1.09;73.5957;98332.86;;;;
2021/03/21 11:21:05;;;;;;;17.8;11;;;;;;;1.15;77.22949;98327.34;;;;
2021/03/21 11:31:02;;;;;;;11.8;9.4;;;;;;;1.43;80.38281;98329.69;;;;
2021/03/21 11:41:00;;;;;;;17;11.4;;;;;;;1.04;84.84766;98333.63;;;;
2021/03/21 11:50:58;;;;;;;16.1;11.7;;;;;;;1.1;86.20117;98329.16;;;;
2021/03/21 12:00:56;;;;;;;19.5;12.8;;;;;;;1.27;88.38184;98308.59;;;;
2021/03/21 12:10:53;;;;;;;20.2;14.6;;;;;;;1.31;88.43457;98296.42;;;;
2021/03/21 12:20:51;;;;;;;20.5;14.7;;;;;;;1.1;91.07227;98282.2;;;;
2021/03/21 12:30:52;;;;;;;18.2;13.8;;;;;;;1.57;89.86426;98271.63;;;;
2021/03/21 12:40:46;;;;;;;13.2;8.3;;;;;;;0.99;85.66211;98241.52;;;;
2021/03/21 12:50:48;;;;;;;9;7.5;;;;;;;1.36;85.57031;98219.45;;;;
2021/03/21 13:00:42;;;;;;;13.2;9.8;;;;;;;1.58;85.76953;98217.45;;;;
2021/03/21 13:10:40;;;;;;;11.1;8.5;;;;;;;1.42;84.33594;98186.59;;;;
2021/03/21 13:20:37;;;;;;;11.5;9.2;;;;;;;1.79;83.74805;98197.9;;;;
2021/03/21 13:30:36;;;;;;;12.1;8.8;;;;;;;1.86;81.6543;98181.71;;;;
2021/03/21 13:40:37;;;;;;;12.8;8.5;;;;;;;1.6;81.71582;98162.22;;;;
2021/03/21 13:50:31;;;;;;;11.8;8.5;;;;;;;1.14;83.47949;98155.91;;;;
2021/03/21 14:00:28;;;;;;;10.1;7.3;;;;;;;1.19;86.78027;98145.3;;;;
2021/03/21 14:10:26;;;;;;;11;8;;;;;;;1.33;86.14844;98127.86;;;;
2021/03/21 14:20:24;;;;;;;11.8;8.4;;;;;;;1.33;87.33789;98119.09;;;;
2021/03/21 14:30:22;;;;;;;17.5;8.1;;;;;;;1.17;88.87598;98106.82;;;;
2021/03/21 14:40:19;;;;;;;9.6;6.7;;;;;;;1.35;87.45117;98093.1;;;;
2021/03/21 14:50:17;;;;;;;12.1;9;;;;;;;1.16;86.4209;98086.64;;;;
2021/03/21 15:00:15;;;;;;;14.1;9.4;;;;;;;1.2;86.25391;98071.8;;;;
2021/03/21 15:10:12;;;;;;;11.3;8.6;;;;;;;1.13;87.40625;98068.58;;;;
2021/03/21 15:20:10;;;;;;;10.9;7;;;;;;;1;85.88477;98057.41;;;;
2021/03/21 15:30:08;;;;;;;12.9;8.5;;;;;;;1.13;84.80859;98042.05;;;;
2021/03/21 15:40:05;;;;;;;11.7;7.7;;;;;;;1.15;84.06348;98045.23;;;;
2021/03/21 15:50:03;;;;;;;13.3;9.5;;;;;;;0.96;83.33301;98036.94;;;;
2021/03/21 16:00:01;;;;;;;17.6;14.4;;;;;;;0.9;84.86328;98033.45;;;;
2021/03/21 16:09:58;;;;;;;21.1;12;;;;;;;1.04;84.84766;98028.5;;;;
2021/03/21 16:19:56;;;;;;;21.3;14.5;;;;;;;0.99;85.18945;98026.61;;;;
2021/03/21 16:29:54;;;;;;;21.2;12.4;;;;;;;0.78;85.5;98030.22;;;;
2021/03/21 16:39:51;;;;;;;12.4;11.1;;;;;;;0.53;87.99805;98027.43;;;;
2021/03/21 16:49:49;;;;;;;14.1;10;;;;;;;0.28;90.65723;98019.31;;;;
2021/03/21 16:59:46;;;;;;;17.9;10.4;;;;;;;0.13;92.0498;98016.58;;;;
2021/03/21 17:09:44;;;;;;;20.5;15.2;;;;;;;0.09;93.07227;98003.03;;;;
2021/03/21 17:19:42;;;;;;;25.4;18.7;;;;;;;-0.03;95.28027;98008.5;;;;
2021/03/21 17:29:42;;;;;;;18.5;13.7;;;;;;;-0.1;97.19922;98015.05;;;;
2021/03/21 17:39:37;;;;;;;21.3;14.5;;;;;;;-0.03;97.37012;98007.7;;;;
2021/03/21 17:49:34;;;;;;;19.8;13;;;;;;;-0.03;97.26074;98005.85;;;;
2021/03/21 17:59:33;;;;;;;22.2;14.9;;;;;;;-0.15;99.4541;98010.53;;;;
2021/03/21 18:09:29;;;;;;;23.1;13.2;;;;;;;-0.19;100;98014.73;;;;
2021/03/21 18:19:27;;;;;;;14;10.5;;;;;;;-0.36;100;98007.95;;;;
2021/03/21 18:29:24;;;;;;;16.4;12.3;;;;;;;-0.39;100;98003.97;;;;
2021/03/21 18:39:22;;;;;;;20.9;12.6;;;;;;;-0.47;100;98011.55;;;;
2021/03/21 18:49:20;;;;;;;15.6;13.8;;;;;;;-0.48;100;98021.34;;;;
2021/03/21 18:59:17;;;;;;;19.6;16.7;;;;;;;-0.37;100;98001.86;;;;
2021/03/21 19:09:15;;;;;;;22.4;13.4;;;;;;;-0.43;100;98000.22;;;;
2021/03/21 19:19:12;;;;;;;16.8;12.7;;;;;;;-0.35;100;98002.42;;;;
2021/03/21 19:29:11;;;;;;;32.1;20.9;;;;;;;-0.29;100;98000.61;;;;
2021/03/21 19:39:07;;;;;;;31.2;22.1;;;;;;;-0.39;100;98000.52;;;;
2021/03/21 19:49:04;;;;;;;25.2;19.2;;;;;;;-0.39;100;97997.88;;;;
2021/03/21 19:59:02;;;;;;;27.5;21.3;;;;;;;-0.35;100;98004.27;;;;
2021/03/21 20:08:59;;;;;;;22.6;17.4;;;;;;;-0.31;100;98000.08;;;;
2021/03/21 20:18:57;;;;;;;20.9;18.5;;;;;;;-0.33;100;97997.66;;;;
2021/03/21 20:28:55;;;;;;;30.2;21.8;;;;;;;-0.39;100;98001.33;;;;
2021/03/21 20:38:52;;;;;;;35.3;25.2;;;;;;;-0.47;100;98004.42;;;;
2021/03/21 20:48:50;;;;;;;28;19.9;;;;;;;-0.46;100;97991.98;;;;
2021/03/21 20:58:47;;;;;;;29.5;19.4;;;;;;;-0.47;100;97998.32;;;;
2021/03/21 21:08:45;;;;;;;29.3;21.7;;;;;;;-0.47;100;97993.83;;;;
2021/03/21 21:18:42;;;;;;;26.8;18.2;;;;;;;-0.48;100;98000.16;;;;
2021/03/21 21:28:42;;;;;;;22.1;18.2;;;;;;;-0.35;100;98001.63;;;;
2021/03/21 21:38:37;;;;;;;26.6;18.9;;;;;;;-0.27;100;98003.8;;;;
2021/03/21 21:48:35;;;;;;;30.8;21.2;;;;;;;-0.19;100;97998.05;;;;
2021/03/21 21:58:33;;;;;;;27.1;21.5;;;;;;;-0.16;100;98013.42;;;;
2021/03/21 22:08:30;;;;;;;24.1;21.6;;;;;;;-0.09;100;98017.47;;;;
2021/03/21 22:18:28;;;;;;;37.9;27.2;;;;;;;-0.02;100;98017.25;;;;
2021/03/21 22:28:25;;;;;;;33.5;25.2;;;;;;;-0.06;100;98039.98;;;;
2021/03/21 22:38:23;;;;;;;38.9;29.4;;;;;;;-0.01;100;98042.69;;;;
2021/03/21 22:48:21;;;;;;;43.4;27.9;;;;;;;0.06;100;98045.93;;;;
2021/03/21 22:58:18;;;;;;;35.3;27.4;;;;;;;0.06;100;98037.18;;;;
2021/03/21 23:08:17;;;;;;;41.3;32.2;;;;;;;0.14;100;98053.39;;;;
2021/03/21 23:18:13;;;;;;;36.8;29.5;;;;;;;0.14;100;98039.38;;;;
2021/03/21 23:28:11;;;;;;;51.6;38.7;;;;;;;0.18;100;98057.14;;;;
2021/03/21 23:38:09;;;;;;;35;28.4;;;;;;;0.2;100;98059.55;;;;
2021/03/21 23:48:06;;;;;;;37.5;27.1;;;;;;;0.31;100;98074.48;;;;
2021/03/21 23:58:04;;;;;;;35.7;25.1;;;;;;;0.38;100;98077.71;;;;
